Time;durP1;ratioP1;P1;durP2;ratioP2;P2;SDS_P1;SDS_P2;PMS_P1;PMS_P2;Temp;Humidity;BMP_temperature;BMP_pressure;BME280_temperature;BME280_humidity;BME280_pressure;Samples;Min_cycle;Max_cycle;Signal;HPM_P1;HPM_P2
2023/07/21 00:01:08;;;;;;;7.15;5.15;;;;;;;25.42;50.50;100738.00;5031936;28;20417;-73
2023/07/21 00:03:34;;;;;;;7.35;5.38;;;;;;;25.21;51.18;100741.72;5033434;28;20480;-73
2023/07/21 00:06:01;;;;;;;6.60;5.68;;;;;;;25.05;51.59;100735.41;5033511;28;21464;-74
2023/07/21 00:08:29;;;;;;;7.90;5.37;;;;;;;24.93;51.96;100727.53;5032000;28;20382;-74
2023/07/21 00:10:58;;;;;;;6.05;5.03;;;;;;;24.89;52.28;100724.53;5031857;28;20378;-74
2023/07/21 00:13:27;;;;;;;7.93;5.50;;;;;;;24.80;52.70;100736.97;5031444;28;20428;-74
2023/07/21 00:15:54;;;;;;;7.13;5.37;;;;;;;24.71;53.00;100733.94;5031716;28;20406;-74
2023/07/21 00:18:19;;;;;;;6.50;5.32;;;;;;;24.78;52.71;100733.72;5030481;28;20405;-74
2023/07/21 00:20:46;;;;;;;7.33;5.20;;;;;;;24.82;52.81;100731.28;5031717;28;20393;-74
2023/07/21 00:23:12;;;;;;;9.15;5.80;;;;;;;24.96;52.36;100727.81;5030847;28;20416;-74
2023/07/21 00:25:39;;;;;;;7.07;5.18;;;;;;;24.91;52.40;100733.22;5031511;28;20382;-74
2023/07/21 00:28:04;;;;;;;7.05;5.30;;;;;;;25.02;52.42;100725.13;5031479;28;20425;-74
2023/07/21 00:30:30;;;;;;;5.90;5.30;;;;;;;25.05;52.08;100721.84;5031497;28;20382;-75
2023/07/21 00:32:57;;;;;;;7.78;5.30;;;;;;;25.05;51.99;100717.28;5031973;28;20371;-74
2023/07/21 00:35:22;;;;;;;6.63;5.28;;;;;;;25.00;52.27;100725.38;5031490;28;20432;-74
2023/07/21 00:37:48;;;;;;;6.53;5.03;;;;;;;24.99;52.29;100721.88;5030204;28;20402;-74
2023/07/21 00:40:18;;;;;;;6.10;5.03;;;;;;;25.04;52.13;100726.47;5031327;28;20378;-73
2023/07/21 00:42:45;;;;;;;6.22;5.38;;;;;;;25.13;51.76;100722.16;5030948;28;20378;-74
2023/07/21 00:45:13;;;;;;;8.10;5.53;;;;;;;25.23;51.31;100721.38;5031177;28;20379;-74
2023/07/21 00:47:39;;;;;;;6.93;5.30;;;;;;;25.27;51.26;100713.56;5031301;28;20393;-73
2023/07/21 00:50:05;;;;;;;7.07;5.10;;;;;;;25.25;51.33;100707.59;5031222;28;20831;-74
2023/07/21 00:52:31;;;;;;;6.80;5.30;;;;;;;25.23;51.31;100707.00;5031307;28;20874;-74
2023/07/21 00:54:57;;;;;;;8.10;5.60;;;;;;;25.18;51.59;100705.09;5031233;28;20370;-74
2023/07/21 00:57:23;;;;;;;7.95;5.55;;;;;;;25.18;51.68;100707.81;5029734;28;20939;-76
2023/07/21 00:59:50;;;;;;;8.85;5.53;;;;;;;25.19;51.56;100702.13;5031739;28;20378;-75
2023/07/21 01:02:17;;;;;;;7.40;5.68;;;;;;;25.17;51.65;100696.16;5031439;28;20870;-76
2023/07/21 01:04:44;;;;;;;6.53;5.70;;;;;;;25.09;51.99;100698.56;5031956;28;20382;-76
2023/07/21 01:07:10;;;;;;;8.15;5.82;;;;;;;25.17;51.63;100695.31;5031504;28;20382;-76
2023/07/21 01:09:38;;;;;;;8.65;5.60;;;;;;;25.22;51.44;100703.47;5032706;28;20858;-77
2023/07/21 01:12:05;;;;;;;5.85;5.10;;;;;;;25.23;51.44;100701.56;5033605;28;20374;-76
2023/07/21 01:14:31;;;;;;;8.93;5.80;;;;;;;25.18;51.57;100705.91;5033038;28;20452;-77
2023/07/21 01:16:59;;;;;;;7.75;5.47;;;;;;;25.09;51.74;100710.22;5032615;28;20752;-75
2023/07/21 01:19:25;;;;;;;6.93;5.25;;;;;;;25.05;51.75;100709.13;5031337;28;20875;-75
2023/07/21 01:21:58;;;;;;;7.18;5.30;;;;;;;24.94;52.28;100707.47;5032325;28;20387;-78
2023/07/21 01:24:33;;;;;;;6.87;5.47;;;;;;;24.94;52.24;100705.56;5032087;28;20366;-78
2023/07/21 01:26:59;;;;;;;6.80;5.15;;;;;;;24.82;52.62;100698.75;5031731;28;20398;-75
2023/07/21 01:29:25;;;;;;;8.23;5.15;;;;;;;24.88;52.74;100701.19;5032209;28;20440;-76
2023/07/21 01:31:53;;;;;;;6.40;5.18;;;;;;;24.89;52.64;100700.13;5031419;28;20367;-76
2023/07/21 01:34:19;;;;;;;6.95;5.18;;;;;;;25.00;52.39;100706.41;5030246;28;20475;-76
2023/07/21 01:36:46;;;;;;;5.88;4.63;;;;;;;24.97;52.14;100704.22;5034746;28;20371;-76
2023/07/21 01:39:12;;;;;;;9.60;5.20;;;;;;;24.97;52.31;100704.22;5037153;28;20393;-76
2023/07/21 01:41:38;;;;;;;7.32;5.47;;;;;;;24.99;52.48;100708.31;5036836;28;20770;-78
2023/07/21 01:44:03;;;;;;;7.93;4.90;;;;;;;24.99;52.21;100710.19;5035179;28;20389;-77
2023/07/21 01:46:29;;;;;;;7.70;4.93;;;;;;;25.07;51.94;100717.00;5033723;28;20934;-77
2023/07/21 01:48:55;;;;;;;8.00;5.80;;;;;;;25.06;52.07;100716.16;5035657;28;20366;-75
2023/07/21 01:51:21;;;;;;;6.43;5.20;;;;;;;25.05;52.00;100703.72;5050470;28;20381;-76
2023/07/21 01:53:54;;;;;;;7.30;5.40;;;;;;;24.89;52.46;100702.84;5034676;28;20417;-76
2023/07/21 01:56:48;;;;;;;9.17;5.27;;;;;;;24.70;53.25;100710.63;5034591;28;20379;-76
2023/07/21 01:59:19;;;;;;;7.97;4.82;;;;;;;24.55;53.64;100714.09;5038212;28;20431;-77
2023/07/21 02:01:47;;;;;;;7.47;5.00;;;;;;;24.51;53.74;100707.53;5035696;28;20410;-75
2023/07/21 02:04:13;;;;;;;7.47;4.93;;;;;;;24.52;53.63;100706.44;5034042;28;20468;-75
2023/07/21 02:06:40;;;;;;;6.72;4.72;;;;;;;24.50;53.83;100703.19;5034998;28;20374;-76
2023/07/21 02:09:06;;;;;;;7.38;5.00;;;;;;;24.43;54.00;100706.16;5033854;28;20458;-76
2023/07/21 02:11:33;;;;;;;6.00;4.82;;;;;;;24.47;53.90;100705.59;5034291;28;20379;-76
2023/07/21 02:13:59;;;;;;;6.97;4.80;;;;;;;24.53;53.69;100701.88;5034087;28;20444;-75
2023/07/21 02:16:24;;;;;;;4.90;4.50;;;;;;;24.48;53.74;100699.91;5034128;28;20382;-75
2023/07/21 02:18:50;;;;;;;6.93;5.10;;;;;;;24.39;54.17;100706.91;5032806;28;20793;-75
2023/07/21 02:21:15;;;;;;;7.37;4.80;;;;;;;24.20;54.82;100706.53;5033884;28;20410;-76
2023/07/21 02:23:41;;;;;;;7.77;5.00;;;;;;;24.09;55.16;100704.84;5033779;28;20366;-76
2023/07/21 02:26:06;;;;;;;6.55;5.07;;;;;;;24.13;54.87;100712.19;5033809;28;20382;-75
2023/07/21 02:28:32;;;;;;;5.57;4.40;;;;;;;24.02;55.29;100716.72;5033436;28;20393;-76
2023/07/21 02:31:02;;;;;;;8.60;5.33;;;;;;;23.82;56.08;100716.53;5033652;28;20393;-76
2023/07/21 02:33:29;;;;;;;8.98;5.30;;;;;;;23.74;56.29;100725.94;5035075;28;20401;-75
2023/07/21 02:35:55;;;;;;;5.82;4.97;;;;;;;23.74;56.42;100731.34;5040985;28;20446;-75
2023/07/21 02:38:20;;;;;;;9.68;5.60;;;;;;;23.71;56.69;100741.88;5052887;28;20972;-76
2023/07/21 02:40:46;;;;;;;7.00;5.50;;;;;;;23.62;56.92;100742.34;5052452;28;20463;-76
2023/07/21 02:43:12;;;;;;;8.20;5.45;;;;;;;23.50;57.14;100754.38;5031168;28;20394;-75
2023/07/21 02:45:38;;;;;;;7.13;5.25;;;;;;;23.46;57.52;100760.31;5022676;28;20403;-76
2023/07/21 02:48:08;;;;;;;7.00;5.20;;;;;;;23.44;57.61;100765.19;5025342;28;20418;-76
2023/07/21 02:50:34;;;;;;;6.68;5.25;;;;;;;23.57;57.01;100763.94;5021512;28;20430;-75
2023/07/21 02:53:00;;;;;;;6.43;5.45;;;;;;;23.57;57.07;100761.25;5019034;28;20456;-78
2023/07/21 02:55:25;;;;;;;7.90;5.43;;;;;;;23.49;57.21;100750.88;5032574;28;20395;-75
2023/07/21 02:57:52;;;;;;;5.35;4.80;;;;;;;23.41;57.45;100754.03;5017672;28;20469;-75
2023/07/21 03:00:17;;;;;;;9.05;5.50;;;;;;;23.39;58.03;100745.34;5018894;28;20400;-74
2023/07/21 03:02:43;;;;;;;7.78;5.40;;;;;;;23.45;57.33;100749.75;5010972;28;20395;-75
2023/07/21 03:05:08;;;;;;;7.23;5.30;;;;;;;23.50;57.10;100752.50;5011086;28;20387;-75
2023/07/21 03:07:34;;;;;;;7.13;5.10;;;;;;;23.59;57.12;100753.69;5010881;28;20544;-75
2023/07/21 03:10:00;;;;;;;8.40;5.70;;;;;;;23.65;56.59;100755.34;5010988;28;20923;-75
2023/07/21 03:12:25;;;;;;;8.47;5.60;;;;;;;23.73;56.33;100758.66;5011643;28;20863;-75
2023/07/21 03:14:51;;;;;;;6.50;5.18;;;;;;;23.88;55.75;100760.72;5013249;28;20388;-76
2023/07/21 03:17:16;;;;;;;9.10;5.70;;;;;;;24.02;55.73;100767.34;5012111;28;20403;-76
2023/07/21 03:19:42;;;;;;;6.82;5.18;;;;;;;23.98;55.45;100752.69;5013058;28;20865;-75
2023/07/21 03:22:07;;;;;;;8.27;5.50;;;;;;;24.07;55.43;100761.16;5012592;28;20416;-76
2023/07/21 03:24:34;;;;;;;6.43;4.90;;;;;;;23.95;55.68;100758.59;5028326;28;20837;-76
2023/07/21 03:27:01;;;;;;;7.47;5.38;;;;;;;24.13;55.58;100765.50;5012858;28;20387;-76
2023/07/21 03:29:26;;;;;;;6.55;5.32;;;;;;;24.10;55.24;100769.56;5012809;28;20384;-76
2023/07/21 03:31:52;;;;;;;6.63;5.40;;;;;;;24.05;55.46;100762.22;5015788;28;20737;-75
2023/07/21 03:34:18;;;;;;;8.27;5.27;;;;;;;23.94;55.83;100762.41;5013981;28;20450;-76
2023/07/21 03:36:43;;;;;;;7.10;5.25;;;;;;;23.80;56.29;100754.69;5012473;28;20415;-76
2023/07/21 03:39:09;;;;;;;6.73;5.43;;;;;;;23.91;56.08;100758.31;5012494;28;20408;-76
2023/07/21 03:41:34;;;;;;;6.70;5.23;;;;;;;24.01;55.90;100766.53;5012851;28;20869;-76
2023/07/21 03:44:00;;;;;;;8.98;5.50;;;;;;;24.01;55.65;100780.06;5012589;28;20415;-76
2023/07/21 03:46:25;;;;;;;8.47;6.77;;;;;;;24.16;55.34;100773.13;5011519;28;20721;-76
2023/07/21 03:48:51;;;;;;;8.05;6.57;;;;;;;24.32;55.14;100774.06;5012714;28;20720;-76
2023/07/21 03:51:17;;;;;;;9.23;5.38;;;;;;;24.18;55.35;100774.53;5013059;28;20467;-76
2023/07/21 03:53:42;;;;;;;12.30;5.60;;;;;;;23.83;56.69;100781.25;5012723;28;20386;-76
2023/07/21 03:56:07;;;;;;;9.27;5.45;;;;;;;23.82;56.76;100787.75;5012535;28;20384;-76
2023/07/21 03:58:33;;;;;;;8.60;5.32;;;;;;;23.78;56.70;100781.19;5011420;28;20454;-76
2023/07/21 04:00:59;;;;;;;8.70;5.27;;;;;;;23.71;56.83;100785.16;5019844;28;20751;-76
2023/07/21 04:03:24;;;;;;;11.45;5.70;;;;;;;23.81;56.98;100790.72;5030937;28;20863;-76
2023/07/21 04:05:51;;;;;;;12.10;5.47;;;;;;;23.87;56.59;100797.81;5031569;28;20437;-76
2023/07/21 04:08:18;;;;;;;9.68;5.32;;;;;;;23.99;56.32;100794.94;5031024;28;20378;-76
2023/07/21 04:10:44;;;;;;;10.93;7.60;;;;;;;24.12;55.95;100802.63;5030955;28;20370;-75
2023/07/21 04:13:09;;;;;;;11.13;7.47;;;;;;;24.26;55.64;100794.88;5031422;28;20382;-76
2023/07/21 04:15:35;;;;;;;9.67;6.67;;;;;;;24.40;55.21;100797.97;5030812;28;20389;-76
2023/07/21 04:18:01;;;;;;;10.75;8.18;;;;;;;24.48;55.07;100793.97;5032050;28;20468;-76
2023/07/21 04:20:28;;;;;;;9.82;6.88;;;;;;;24.68;54.79;100788.69;5031881;28;20375;-76
2023/07/21 04:22:54;;;;;;;8.25;6.10;;;;;;;24.88;54.13;100792.59;5030932;28;20739;-75
2023/07/21 04:25:20;;;;;;;8.93;6.10;;;;;;;25.00;53.87;100790.47;5030441;28;20406;-75
2023/07/21 04:27:50;;;;;;;6.65;5.00;;;;;;;25.14;53.54;100797.03;5032047;28;20925;-77
2023/07/21 04:30:19;;;;;;;6.50;5.45;;;;;;;25.19;53.28;100788.09;5031796;28;20399;-77
2023/07/21 04:32:44;;;;;;;7.95;5.32;;;;;;;25.31;53.11;100796.03;5031489;28;20456;-76
2023/07/21 04:35:10;;;;;;;7.55;5.32;;;;;;;25.35;52.82;100794.41;5031502;28;20894;-76
2023/07/21 04:37:36;;;;;;;9.10;5.97;;;;;;;25.40;52.65;100797.16;5031359;28;20370;-75
2023/07/21 04:40:02;;;;;;;9.50;6.00;;;;;;;25.55;52.61;100808.06;5031605;28;20383;-76
2023/07/21 04:42:28;;;;;;;6.90;5.27;;;;;;;25.80;51.89;100803.75;5031263;28;20379;-76
2023/07/21 04:44:53;;;;;;;6.75;5.10;;;;;;;26.00;51.38;100796.72;5031389;28;20382;-76
2023/07/21 04:47:19;;;;;;;8.47;5.07;;;;;;;26.08;51.21;100802.44;5031324;28;20402;-75
2023/07/21 04:49:46;;;;;;;9.10;4.73;;;;;;;26.32;50.63;100796.44;5031283;28;20379;-76
2023/07/21 04:52:11;;;;;;;7.35;4.85;;;;;;;26.49;50.05;100796.16;5031244;28;20843;-76
2023/07/21 04:54:38;;;;;;;7.80;5.00;;;;;;;26.49;50.11;100798.88;5031400;28;20381;-76
2023/07/21 04:57:04;;;;;;;6.53;4.68;;;;;;;26.64;50.32;100803.50;5031055;28;20854;-75
2023/07/21 04:59:29;;;;;;;6.90;4.90;;;;;;;26.68;50.07;100807.28;5031514;28;20398;-76
2023/07/21 05:01:55;;;;;;;7.20;4.97;;;;;;;26.89;49.58;100802.59;5031284;28;20859;-76
2023/07/21 05:04:20;;;;;;;5.32;4.53;;;;;;;27.06;49.32;100803.09;5031159;28;20485;-76
2023/07/21 05:06:47;;;;;;;8.80;5.33;;;;;;;27.15;49.05;100803.31;5031485;28;20386;-77
2023/07/21 05:09:14;;;;;;;8.40;5.20;;;;;;;27.24;49.11;100804.38;5031130;28;20397;-77
2023/07/21 05:11:40;;;;;;;6.55;5.03;;;;;;;27.37;48.76;100808.44;5031777;28;20382;-75
2023/07/21 05:14:05;;;;;;;8.98;6.85;;;;;;;27.53;48.38;100805.59;5030777;28;20408;-75
2023/07/21 05:16:37;;;;;;;6.63;5.00;;;;;;;27.63;48.04;100803.63;5031398;28;20387;-76
2023/07/21 05:19:03;;;;;;;7.57;4.73;;;;;;;27.71;47.49;100802.19;5031205;28;20417;-75
2023/07/21 05:21:29;;;;;;;5.90;4.57;;;;;;;27.68;47.57;100808.25;5033932;28;20469;-77
2023/07/21 05:23:55;;;;;;;5.45;4.93;;;;;;;27.68;47.58;100800.06;5026143;28;20462;-75
2023/07/21 05:26:21;;;;;;;6.10;4.70;;;;;;;27.85;47.13;100796.94;5017916;28;20376;-75
2023/07/21 05:28:49;;;;;;;8.87;4.73;;;;;;;28.06;47.12;100808.53;5017091;28;20949;-75
2023/07/21 05:31:15;;;;;;;7.63;4.80;;;;;;;28.12;46.98;100791.03;5014919;28;20402;-75
2023/07/21 05:33:41;;;;;;;6.93;4.40;;;;;;;28.10;46.55;100795.94;5015606;28;20749;-75
2023/07/21 05:36:09;;;;;;;9.97;4.90;;;;;;;28.05;46.57;100785.09;5019205;28;20387;-75
2023/07/21 05:38:35;;;;;;;6.78;4.75;;;;;;;28.13;46.35;100798.13;5021264;28;20392;-76
2023/07/21 05:41:02;;;;;;;6.27;4.60;;;;;;;28.18;46.05;100799.97;5019322;28;20380;-77
2023/07/21 05:43:27;;;;;;;8.02;5.00;;;;;;;28.25;46.12;100797.72;5019609;28;20444;-76
2023/07/21 05:45:53;;;;;;;6.80;4.90;;;;;;;28.31;45.69;100798.50;5016525;28;20860;-77
2023/07/21 05:48:19;;;;;;;8.32;5.05;;;;;;;28.34;45.53;100800.63;5011432;28;20413;-76
2023/07/21 05:50:44;;;;;;;7.37;4.97;;;;;;;28.44;45.71;100800.53;5010989;28;20407;-76
2023/07/21 05:53:10;;;;;;;9.25;4.78;;;;;;;28.45;45.40;100804.91;5011131;28;20384;-75
2023/07/21 05:55:35;;;;;;;7.45;4.97;;;;;;;28.45;45.36;100806.81;5027656;28;20516;-75
2023/07/21 05:58:01;;;;;;;8.13;5.07;;;;;;;28.39;45.30;100809.56;5030504;28;20417;-75
2023/07/21 06:00:26;;;;;;;7.33;5.07;;;;;;;28.52;45.31;100804.56;5030780;28;20386;-76
2023/07/21 06:02:52;;;;;;;8.25;5.10;;;;;;;28.79;45.42;100810.31;5031343;28;20378;-76
2023/07/21 06:05:18;;;;;;;6.50;4.93;;;;;;;28.99;44.90;100805.69;5030748;28;20466;-75
2023/07/21 06:07:44;;;;;;;7.72;5.18;;;;;;;28.97;44.47;100816.91;5030189;28;20387;-76
2023/07/21 06:10:11;;;;;;;9.63;5.30;;;;;;;28.69;44.96;100810.41;5030121;28;20370;-76
2023/07/21 06:12:37;;;;;;;9.82;5.15;;;;;;;28.67;45.11;100804.44;5030875;28;20393;-76
2023/07/21 06:15:04;;;;;;;9.88;5.40;;;;;;;28.93;44.64;100804.94;5022135;28;20405;-75
2023/07/21 06:17:29;;;;;;;8.40;5.30;;;;;;;29.26;44.60;100798.81;5018473;28;20411;-77
2023/07/21 06:19:56;;;;;;;8.95;4.70;;;;;;;29.54;43.90;100803.34;5024762;28;20410;-77
2023/07/21 06:22:22;;;;;;;8.50;5.00;;;;;;;29.65;44.08;100795.81;5017469;28;20487;-75
2023/07/21 06:24:47;;;;;;;11.65;5.10;;;;;;;29.78;44.21;100793.47;5020884;28;20491;-76
2023/07/21 06:27:14;;;;;;;7.53;4.80;;;;;;;29.90;44.22;100797.34;5022245;28;20780;-76
2023/07/21 06:29:40;;;;;;;9.10;5.05;;;;;;;29.98;43.78;100803.25;5034365;28;20689;-75
2023/07/21 06:32:06;;;;;;;7.47;5.10;;;;;;;30.00;44.13;100796.41;5021136;28;20462;-76
2023/07/21 06:34:31;;;;;;;11.55;4.90;;;;;;;30.07;43.82;100796.81;5014431;28;20394;-76
2023/07/21 06:36:57;;;;;;;7.67;5.33;;;;;;;29.92;44.21;100791.59;5014075;28;21083;-77
2023/07/21 06:39:23;;;;;;;8.52;5.43;;;;;;;30.09;43.74;100794.59;5013831;28;20436;-77
2023/07/21 06:41:49;;;;;;;9.30;5.20;;;;;;;30.03;43.75;100784.84;5013770;28;20383;-75
2023/07/21 06:44:15;;;;;;;10.15;5.53;;;;;;;30.21;44.03;100783.16;5013978;28;20414;-75
2023/07/21 06:46:44;;;;;;;8.27;4.87;;;;;;;30.46;43.83;100787.38;5021395;28;20378;-76
2023/07/21 06:49:10;;;;;;;5.63;4.47;;;;;;;30.22;42.44;100792.19;5022690;28;20847;-76
2023/07/21 06:51:36;;;;;;;7.47;4.38;;;;;;;30.06;42.55;100794.38;5014532;28;20388;-75
2023/07/21 06:54:03;;;;;;;6.30;4.90;;;;;;;30.34;43.29;100797.19;5012073;28;20388;-75
2023/07/21 06:56:30;;;;;;;7.05;4.65;;;;;;;30.71;42.89;100806.38;5011452;28;20380;-76
2023/07/21 06:58:55;;;;;;;5.70;4.32;;;;;;;30.77;42.42;100805.13;5012439;28;20408;-76
2023/07/21 07:01:21;;;;;;;8.23;4.55;;;;;;;30.92;42.12;100804.03;5011982;28;20414;-75
2023/07/21 07:03:47;;;;;;;6.22;4.55;;;;;;;30.72;42.46;100811.53;5013229;28;20391;-76
2023/07/21 07:06:12;;;;;;;7.25;4.55;;;;;;;30.63;42.30;100816.06;5013347;28;20380;-76
2023/07/21 07:08:38;;;;;;;6.90;4.60;;;;;;;30.47;41.74;100812.84;5012131;28;20839;-76
2023/07/21 07:11:03;;;;;;;6.50;4.50;;;;;;;30.36;42.14;100809.47;5012852;28;20434;-75
2023/07/21 07:13:29;;;;;;;5.43;4.30;;;;;;;30.47;41.60;100804.63;5014297;28;20388;-75
2023/07/21 07:15:54;;;;;;;5.20;4.47;;;;;;;30.64;41.63;100813.03;5026599;28;20815;-75
2023/07/21 07:18:20;;;;;;;8.77;4.20;;;;;;;30.49;41.43;100805.94;5033252;28;20402;-75
2023/07/21 07:20:50;;;;;;;5.82;4.13;;;;;;;30.98;40.35;100811.84;5032675;28;20389;-75
2023/07/21 07:23:16;;;;;;;8.98;4.72;;;;;;;31.12;41.19;100820.06;5032629;28;20859;-74
2023/07/21 07:25:46;;;;;;;8.88;5.15;;;;;;;31.37;41.60;100807.75;5032874;28;21031;-75
2023/07/21 07:28:12;;;;;;;7.32;4.65;;;;;;;31.30;41.57;100809.28;5036795;28;20845;-74
2023/07/21 07:30:39;;;;;;;9.20;4.70;;;;;;;31.30;41.71;100803.81;5012935;28;20412;-74
2023/07/21 07:33:04;;;;;;;6.93;4.55;;;;;;;31.47;41.18;100806.69;5013256;28;20391;-74
2023/07/21 07:35:30;;;;;;;7.32;4.50;;;;;;;31.59;41.24;100815.22;5015134;28;20863;-75
2023/07/21 07:37:56;;;;;;;7.27;4.33;;;;;;;31.68;40.17;100809.00;5012557;28;20408;-75
2023/07/21 07:40:21;;;;;;;7.82;5.07;;;;;;;32.00;39.44;100800.53;5013126;28;20784;-75
2023/07/21 07:42:47;;;;;;;9.53;4.83;;;;;;;31.96;39.62;100804.19;5012600;28;20379;-74
2023/07/21 07:45:12;;;;;;;8.70;4.90;;;;;;;32.05;39.58;100794.13;5020659;28;20733;-75
2023/07/21 07:47:38;;;;;;;8.80;5.10;;;;;;;32.00;39.55;100794.25;5014190;28;20763;-74
2023/07/21 07:50:04;;;;;;;6.80;4.53;;;;;;;32.12;39.96;100790.94;5013061;28;20446;-75
2023/07/21 07:52:30;;;;;;;6.38;4.47;;;;;;;32.09;39.59;100797.88;5013770;28;20380;-74
2023/07/21 07:54:57;;;;;;;8.38;4.88;;;;;;;32.17;39.57;100799.03;5012186;28;20471;-73
2023/07/21 07:57:25;;;;;;;6.88;4.60;;;;;;;32.15;39.09;100796.59;5011092;28;20477;-74
2023/07/21 07:59:51;;;;;;;9.10;4.40;;;;;;;32.25;38.61;100789.22;5010550;28;20400;-75
2023/07/21 08:02:16;;;;;;;7.07;4.43;;;;;;;32.37;38.75;100798.50;5020654;28;20781;-74
2023/07/21 08:04:42;;;;;;;7.75;4.20;;;;;;;32.41;38.48;100792.38;5013339;28;20449;-74
2023/07/21 08:07:07;;;;;;;8.00;4.10;;;;;;;32.42;37.62;100794.00;5013384;28;20380;-74
2023/07/21 08:09:33;;;;;;;7.75;4.30;;;;;;;32.43;37.67;100787.38;5014193;28;20387;-74
2023/07/21 08:11:58;;;;;;;7.00;4.17;;;;;;;32.39;37.60;100790.78;5028498;28;20407;-76
2023/07/21 08:14:24;;;;;;;8.10;4.10;;;;;;;32.48;37.66;100790.78;5011738;28;20376;-74
2023/07/21 08:16:49;;;;;;;5.50;4.30;;;;;;;32.51;37.16;100790.16;5013292;28;20455;-76
2023/07/21 08:19:15;;;;;;;5.90;4.40;;;;;;;32.63;37.39;100797.84;5012379;28;20408;-74
2023/07/21 08:21:40;;;;;;;7.07;4.40;;;;;;;32.66;37.74;100799.13;5012566;28;20388;-77
2023/07/21 08:24:06;;;;;;;7.37;4.67;;;;;;;32.71;37.72;100799.78;5012381;28;20398;-75
2023/07/21 08:26:32;;;;;;;5.17;4.37;;;;;;;32.86;37.70;100801.31;5011287;28;20388;-76
2023/07/21 08:28:57;;;;;;;5.82;4.70;;;;;;;32.91;37.78;100798.41;5011752;28;20892;-76
2023/07/21 08:31:23;;;;;;;5.60;4.40;;;;;;;33.04;37.87;100807.63;5021235;28;20385;-76
2023/07/21 08:33:50;;;;;;;7.83;4.90;;;;;;;33.06;37.37;100797.16;5023182;28;20383;-76
2023/07/21 08:36:16;;;;;;;5.65;4.40;;;;;;;33.14;37.00;100790.88;5024839;28;20380;-75
2023/07/21 08:38:42;;;;;;;6.60;4.40;;;;;;;33.11;36.56;100791.50;5020639;28;20419;-75
2023/07/21 08:41:08;;;;;;;7.88;4.43;;;;;;;33.20;36.02;100794.28;5024495;28;20390;-76
2023/07/21 08:43:35;;;;;;;6.35;4.47;;;;;;;33.27;35.50;100793.81;5020514;28;20384;-76
2023/07/21 08:46:03;;;;;;;6.53;4.18;;;;;;;33.36;35.64;100782.84;5019817;28;20836;-76
2023/07/21 08:48:30;;;;;;;8.15;4.25;;;;;;;33.47;35.27;100792.38;5023619;28;20525;-75
2023/07/21 08:50:57;;;;;;;7.70;4.35;;;;;;;33.48;35.31;100792.03;5034374;28;20383;-74
2023/07/21 08:53:27;;;;;;;6.87;3.90;;;;;;;33.58;34.14;100795.59;5013670;28;20453;-75
2023/07/21 08:55:57;;;;;;;5.68;3.92;;;;;;;33.71;34.23;100781.72;5025572;28;21037;-76
2023/07/21 08:58:24;;;;;;;5.85;4.22;;;;;;;33.64;34.46;100786.88;5021620;28;20490;-76
2023/07/21 09:00:52;;;;;;;5.80;4.40;;;;;;;33.57;34.83;100789.31;5021535;28;20711;-75
2023/07/21 09:03:22;;;;;;;5.82;4.10;;;;;;;33.68;34.94;100776.88;5022415;28;20386;-76
2023/07/21 09:05:49;;;;;;;5.37;4.00;;;;;;;33.76;34.43;100790.94;5031277;28;20391;-75
2023/07/21 09:08:27;;;;;;;8.77;4.22;;;;;;;33.85;33.39;100784.31;5041471;28;20366;-75
2023/07/21 09:10:57;;;;;;;6.35;3.75;;;;;;;33.92;33.32;100783.78;5049566;28;20377;-76
2023/07/21 09:13:23;;;;;;;6.07;3.63;;;;;;;33.95;32.84;100769.38;5049371;28;20378;-77
2023/07/21 09:16:06;;;;;;;6.33;3.90;;;;;;;33.91;32.26;100773.94;5029491;28;20540;-76
2023/07/21 09:18:40;;;;;;;6.40;3.80;;;;;;;33.91;32.57;100776.69;5051005;28;20434;-74
2023/07/21 09:21:07;;;;;;;6.53;3.90;;;;;;;33.97;32.20;100769.84;5051714;28;20849;-75
2023/07/21 09:23:33;;;;;;;6.07;3.67;;;;;;;33.95;32.48;100771.34;5050672;28;20387;-75
2023/07/21 09:26:02;;;;;;;7.03;3.80;;;;;;;33.97;32.74;100783.59;5050976;28;20694;-75
2023/07/21 09:28:40;;;;;;;6.80;3.85;;;;;;;34.24;31.82;100792.63;5049949;28;20445;-75
2023/07/21 09:31:06;;;;;;;10.15;4.00;;;;;;;34.35;31.51;100780.13;5049983;28;20369;-76
2023/07/21 09:33:37;;;;;;;5.87;3.60;;;;;;;34.40;30.96;100782.69;5053415;28;20384;-74
2023/07/21 09:36:08;;;;;;;5.00;3.70;;;;;;;34.42;31.23;100771.38;5049774;28;20373;-76
2023/07/21 09:38:35;;;;;;;6.03;3.78;;;;;;;34.39;31.19;100767.31;5049366;28;20410;-75
2023/07/21 09:41:02;;;;;;;5.80;3.60;;;;;;;34.46;30.91;100772.31;5050908;28;20384;-76
2023/07/21 09:43:30;;;;;;;5.85;3.88;;;;;;;34.48;30.76;100775.53;5049895;28;20368;-75
2023/07/21 09:45:59;;;;;;;8.07;3.88;;;;;;;34.46;30.57;100773.09;5051292;28;20380;-74
2023/07/21 09:48:27;;;;;;;5.28;3.55;;;;;;;34.59;30.30;100771.28;5051372;28;20365;-75
2023/07/21 09:50:56;;;;;;;4.88;3.60;;;;;;;34.62;30.26;100767.84;5050065;28;20915;-76
2023/07/21 09:53:25;;;;;;;4.15;3.70;;;;;;;34.68;30.21;100757.47;5039826;28;20383;-75
2023/07/21 09:55:54;;;;;;;3.97;3.30;;;;;;;34.55;30.11;100753.00;5049772;28;20435;-76
2023/07/21 09:58:25;;;;;;;6.07;3.60;;;;;;;34.54;30.41;100754.13;5055220;28;20430;-74
2023/07/21 10:00:53;;;;;;;5.78;3.78;;;;;;;34.51;30.71;100749.31;5037880;28;20471;-75
2023/07/21 10:03:22;;;;;;;5.05;3.80;;;;;;;34.67;30.73;100745.66;5033793;28;20533;-75
2023/07/21 10:05:49;;;;;;;7.75;4.13;;;;;;;34.72;31.29;100752.13;5034486;28;20437;-76
2023/07/21 10:08:15;;;;;;;7.03;4.20;;;;;;;34.71;31.29;100751.31;5032343;28;21009;-75
2023/07/21 10:10:42;;;;;;;5.93;3.65;;;;;;;34.79;30.96;100744.13;5014353;28;20860;-74
2023/07/21 10:13:07;;;;;;;6.10;3.83;;;;;;;34.71;31.57;100743.06;5015110;28;20397;-75
2023/07/21 10:15:37;;;;;;;6.07;4.20;;;;;;;34.87;31.15;100748.00;5024605;28;20390;-76
2023/07/21 10:18:14;;;;;;;7.68;3.90;;;;;;;34.87;31.30;100748.81;5020222;28;20847;-74
2023/07/21 10:20:49;;;;;;;5.97;4.20;;;;;;;34.95;31.08;100758.13;5024621;28;20727;-76
2023/07/21 10:23:23;;;;;;;5.40;3.50;;;;;;;34.95;31.18;100749.88;5016834;28;20475;-76
2023/07/21 10:25:52;;;;;;;4.80;3.70;;;;;;;34.98;30.93;100752.75;5026609;28;20419;-75
2023/07/21 10:28:37;;;;;;;5.53;4.10;;;;;;;35.07;30.87;100747.19;5024604;28;20375;-75
2023/07/21 10:31:21;;;;;;;4.40;3.97;;;;;;;35.21;30.91;100750.53;5023151;28;20791;-75
2023/07/21 10:34:11;;;;;;;6.25;4.10;;;;;;;35.22;31.06;100749.41;5024020;28;20417;-76
2023/07/21 10:36:44;;;;;;;6.90;4.25;;;;;;;35.28;30.98;100750.00;5017654;28;20372;-75
2023/07/21 10:39:11;;;;;;;6.78;3.83;;;;;;;35.32;30.64;100748.16;5023632;28;20408;-76
2023/07/21 10:41:38;;;;;;;5.95;3.83;;;;;;;35.33;30.93;100740.69;5016330;28;20371;-74
2023/07/21 10:44:08;;;;;;;6.32;4.05;;;;;;;35.32;30.75;100744.63;5023338;28;20832;-76
2023/07/21 10:46:38;;;;;;;4.47;4.07;;;;;;;35.25;30.90;100739.63;5027762;28;20866;-74
2023/07/21 10:49:04;;;;;;;5.53;4.00;;;;;;;35.23;30.57;100744.69;5026118;28;20374;-76
2023/07/21 10:51:30;;;;;;;6.38;3.83;;;;;;;35.42;30.51;100735.94;5030304;28;20400;-74
2023/07/21 10:53:56;;;;;;;5.85;3.90;;;;;;;35.48;30.71;100734.56;5021055;28;20373;-75
2023/07/21 10:56:22;;;;;;;4.73;3.70;;;;;;;35.36;30.11;100734.50;5022015;28;20374;-74
2023/07/21 10:58:48;;;;;;;7.47;3.92;;;;;;;35.26;29.83;100729.41;5027316;28;20502;-75
2023/07/21 11:01:21;;;;;;;5.28;3.85;;;;;;;35.17;30.27;100729.47;5033233;28;20934;-75
2023/07/21 11:03:48;;;;;;;4.90;3.70;;;;;;;35.27;30.55;100737.34;5033686;28;20385;-75
2023/07/21 11:06:16;;;;;;;5.13;4.05;;;;;;;35.27;30.33;100742.06;5033178;28;20378;-75
2023/07/21 11:08:43;;;;;;;6.30;3.70;;;;;;;35.32;29.74;100737.13;5034593;28;20750;-74
2023/07/21 11:11:09;;;;;;;5.38;3.55;;;;;;;35.41;29.63;100728.78;5032830;28;20441;-77
2023/07/21 11:13:37;;;;;;;5.50;3.80;;;;;;;35.30;29.93;100731.16;5030875;28;20406;-77
2023/07/21 11:16:03;;;;;;;8.05;3.90;;;;;;;35.32;29.64;100730.81;5028535;28;20465;-74
2023/07/21 11:18:29;;;;;;;4.53;3.73;;;;;;;35.33;29.52;100727.75;5033723;28;20813;-75
2023/07/21 11:20:55;;;;;;;5.95;3.83;;;;;;;35.37;29.47;100728.66;5030089;28;20390;-76
2023/07/21 11:23:26;;;;;;;7.40;3.50;;;;;;;35.46;29.41;100716.78;5033613;28;20882;-76